Goodman, MO (64843)

8:56 PM CDT on July 11, 2014 (GMT -0500)
South east of Granby (KMOGRANB2) Elev 1217 ft | 36.89 °N, 94.23 °W | Change Station

Current weather conditions updated 8 minutes ago

Clear
Clear
83.1 °F
Feels Like 85 °F
N
0.0
Wind Variable Wind from SSE
Gusts 0.0 mph

Tomorrow is forecast to be nearly the same temperature as today.

Today
High -- | Low -- °F
--% Chance of Precip.
Yesterday
High -- | Low -- °F
Precip. -- in
6:07 AM 8:38 PM
Full, 100% visible
Pressure 30.09 in
Visibility 10.0 miles
Clouds Clear
Heat Index 85 °F
Dew Point 65 °F
Humidity 55%
Rainfall 0.00 in
Snow Depth Not available.
UV 0.0 out of 12
Pollen 4.40 out of 12
Air Quality Not available.
Flu Activity Sporadic
METAR KGMJ 120135Z AUTO 16004KT 10SM CLR 28/22 A3009 RMK AO2

More Conditions Fewer Conditions

Pressure 30.09 in
Visibility 10.0 miles
Clouds Clear
Heat Index 85 °F
Dew Point 65 °F
Humidity 55%
Rainfall 0.00 in
Snow Depth Not available.
UV 0.0 out of 12
Pollen 4.40 out of 12
Air Quality Not available.
Flu Activity Sporadic
METAR KGMJ 120135Z AUTO 16004KT 10SM CLR 28/22 A3009 RMK AO2

More Conditions Fewer Conditions

10-Day Weather Forecast

Almanac

Astronomy

Jul. 11, 2014 Rise Set
Actual Time 6:07 AM CDT 8:38 PM CDT
Civil Twilight 5:37 AM CDT 9:08 PM CDT
Nautical Twilight 5:00 AM CDT 9:45 PM CDT
Astronomical Twilight 4:19 AM CDT 10:26 PM CDT
Moon 7:51 PM CDT (7/11) 5:19 AM CDT (7/11)
Length of Visible Light 15h 30m
Length of Day
14h 30m
Tomorrow will be 1m 1s shorter.
Full, 100% of the Moon is Illuminated
Today
Full
Jul 12
Full
Jul 18
Last Quarter
Jul 26
New
Aug 3
First Quarter

Today's Extremes

State Highs State Lows

Community

WunderPhotos

Upload Photos

1,732,634 photos uploaded!

WunderBlogs® & News

Nearby

Snow Depth

Station Depth Elevation
No new snow has been reported.

Earthquake Activity

City Distance Mag. Time & Date
No recent earthquake activity has been reported nearby.
Minimum magnitude displayed is 2.5.

Coastal Water Temperatures

Place Temperature
No Stations Reporting

Nearby Weather Stations

Station Location Temp. Heat Index Dew Point Humidity Wind Precip. Elev Updated Type
South east of Granby, Granby, MO 83.1 °F 85 °F 65 °F 55% SSE  at  0.0 mph 0.00 in / hr 1217 ft 8:48 PM CDT Rapid Fire
Loch Lomond, Bella Vista, AR 80.4 °F 84 °F 71 °F 74% SSW  at  0.0 mph 0.00 in / hr 1243 ft 8:31 PM CDT Normal
Farm Road 2100, Wheaton, MO 75.5 °F 76 °F 71 °F 86% SE  at  0.0 mph 0.00 in / hr 1335 ft 8:56 PM CDT Rapid Fire
FryeComp -2 Mi/S SWC, Gravette, AR 80.7 °F 82 °F 64 °F 57% South  at  0.0 mph 0.00 in / hr 1138 ft 8:54 PM CDT Normal
Gravette Westside, Gravette, AR 85.1 °F 90 °F 71 °F 62% SE  at  0.2 mph 0.00 in / hr 1220 ft 8:56 PM CDT Rapid Fire
Mohaska, Joplin, MO 83.1 °F 89 °F 73 °F 72% SSE  at  2.0 mph 0.00 in / hr 1010 ft 8:47 PM CDT Normal

Show More Stations Show Fewer Stations